createdAt,value
2018-04-23T00:00:15.285Z,89.30
2018-04-23T00:02:45.133Z,87.90
2018-04-23T00:05:14.616Z,87.90
2018-04-23T00:07:44.078Z,86.90
2018-04-23T00:10:13.534Z,86.70
2018-04-23T00:12:43.007Z,86.10
2018-04-23T00:15:13.382Z,85.80
2018-04-23T00:17:42.849Z,86.50
2018-04-23T00:20:12.697Z,87.50
2018-04-23T00:22:42.153Z,87.50
2018-04-23T00:25:11.326Z,88.20
2018-04-23T00:27:40.821Z,86.80
2018-04-23T00:30:10.264Z,88.30
2018-04-23T00:32:39.770Z,88.40
2018-04-23T00:35:09.692Z,89.40
2018-04-23T00:37:39.164Z,89.40
2018-04-23T00:40:08.317Z,88.10
2018-04-23T00:42:37.808Z,87.70
2018-04-23T00:45:07.246Z,85.70
2018-04-23T00:47:36.731Z,85.30
2018-04-23T00:50:06.181Z,84.30
2018-04-23T00:52:35.633Z,86.30
2018-04-23T00:55:05.502Z,84.60
2018-04-23T00:57:34.997Z,84.60
2018-04-23T01:00:03.774Z,88.20
2018-04-23T01:02:32.641Z,89.30
2018-04-23T01:05:02.105Z,90.10
2018-04-23T01:07:31.585Z,90.40
2018-04-23T01:10:01.035Z,90.80
2018-04-23T01:12:30.494Z,91.00
2018-04-23T01:14:59.958Z,91.20
2018-04-23T01:17:29.437Z,91.40
2018-04-23T01:19:58.887Z,91.40
2018-04-23T01:22:28.357Z,90.30
2018-04-23T01:24:58.221Z,90.50
2018-04-23T01:27:27.720Z,90.50
2018-04-23T01:29:57.183Z,90.70
2018-04-23T01:32:26.671Z,91.30
2018-04-23T01:34:56.168Z,91.40
2018-04-23T01:37:26.011Z,91.80
2018-04-23T01:39:55.470Z,91.80
2018-04-23T01:42:24.949Z,91.20
2018-04-23T01:44:54.405Z,91.60
2018-04-23T01:47:23.865Z,91.50
2018-04-23T01:49:53.746Z,89.80
2018-04-23T01:52:23.220Z,89.80
2018-04-23T01:54:53.084Z,91.40
2018-04-23T01:57:22.597Z,91.40
2018-04-23T01:59:52.218Z,90.40
2018-04-23T02:02:21.713Z,91.50
2018-04-23T02:04:51.398Z,91.20
2018-04-23T02:07:20.877Z,89.50
2018-04-23T02:09:50.326Z,90.70
2018-04-23T02:12:19.777Z,91.60
2018-04-23T02:14:49.265Z,90.80
2018-04-23T02:17:18.721Z,89.80
2018-04-23T02:19:48.173Z,88.90
2018-04-23T02:22:17.659Z,90.70
2018-04-23T02:24:48.052Z,89.80
2018-04-23T02:27:17.547Z,90.60
2018-04-23T02:29:47.392Z,88.40
2018-04-23T02:32:16.889Z,88.30
2018-04-23T02:34:46.358Z,87.60
2018-04-23T02:37:15.558Z,90.80
2018-04-23T02:39:45.034Z,91.20
2018-04-23T02:42:14.501Z,91.70
2018-04-23T02:44:43.989Z,91.80
2018-04-23T02:47:13.850Z,91.70
2018-04-23T02:49:43.301Z,91.70
2018-04-23T02:52:12.765Z,91.70
2018-04-23T02:54:42.641Z,92.00
2018-04-23T02:57:12.126Z,92.00
2018-04-23T02:59:41.608Z,91.90
2018-04-23T03:02:11.045Z,91.80
2018-04-23T03:04:40.912Z,91.90
2018-04-23T03:07:10.397Z,91.80
2018-04-23T03:09:40.298Z,91.80
2018-04-23T03:12:09.749Z,91.80
2018-04-23T03:14:38.959Z,91.60
2018-04-23T03:17:08.412Z,92.00
2018-04-23T03:19:37.900Z,92.20
2018-04-23T03:22:07.765Z,91.90
2018-04-23T03:24:37.234Z,91.90
2018-04-23T03:27:06.707Z,91.70
2018-04-23T03:29:36.210Z,92.10
2018-04-23T03:32:05.712Z,92.00
2018-04-23T03:34:35.593Z,92.90
2018-04-23T03:37:05.111Z,92.90
2018-04-23T03:39:35.123Z,92.40
2018-04-23T03:42:04.573Z,92.40
2018-04-23T03:44:34.062Z,92.30
2018-04-23T03:47:03.523Z,90.40
2018-04-23T03:49:33.011Z,91.10
2018-04-23T03:52:02.484Z,89.80
2018-04-23T03:54:31.924Z,89.30
2018-04-23T03:57:01.381Z,88.00
2018-04-23T03:59:30.854Z,88.90
2018-04-23T04:02:00.037Z,90.00
2018-04-23T04:04:29.497Z,87.40
2018-04-23T04:06:58.972Z,88.60
2018-04-23T04:09:28.657Z,88.10
2018-04-23T04:11:57.490Z,86.80
2018-04-23T04:14:37.926Z,85.60
2018-04-23T04:17:06.910Z,84.50
2018-04-23T04:19:36.114Z,85.00
2018-04-23T04:22:05.594Z,84.60
2018-04-23T04:24:35.045Z,84.70
2018-04-23T04:27:04.521Z,85.80
2018-04-23T04:29:33.978Z,87.90
2018-04-23T04:32:03.563Z,88.50
2018-04-23T04:34:33.049Z,86.20
2018-04-23T04:37:02.579Z,86.20
2018-04-23T04:39:33.647Z,86.10
2018-04-23T04:42:03.137Z,86.10
2018-04-23T04:44:32.588Z,86.90
2018-04-23T04:47:02.064Z,85.20
2018-04-23T04:49:31.319Z,84.60
2018-04-23T04:52:02.081Z,85.60
2018-04-23T04:54:31.576Z,85.50
2018-04-23T04:57:01.468Z,85.60
2018-04-23T04:59:30.962Z,85.60
2018-04-23T05:02:00.431Z,84.80
2018-04-23T05:04:29.881Z,84.40
2018-04-23T05:06:59.377Z,83.90
2018-04-23T05:09:28.865Z,84.50
2018-04-23T05:11:58.319Z,83.80
2018-04-23T05:14:27.790Z,83.70
2018-04-23T05:16:57.264Z,85.30
2018-04-23T05:19:26.484Z,83.80
2018-04-23T05:21:56.345Z,83.60
2018-04-23T05:24:25.829Z,83.60
2018-04-23T05:26:55.267Z,83.50
2018-04-23T05:29:24.828Z,83.30
2018-04-23T05:31:55.208Z,82.80
2018-04-23T05:34:25.086Z,82.40
2018-04-23T05:36:54.542Z,82.40
2018-04-23T05:39:24.028Z,82.70
2018-04-23T05:41:53.511Z,82.40
2018-04-23T05:44:23.360Z,83.40
2018-04-23T05:46:52.798Z,83.40
2018-04-23T05:49:22.319Z,82.60
2018-04-23T05:51:51.762Z,82.70
2018-04-23T05:54:21.233Z,82.90
2018-04-23T05:56:50.690Z,81.80
2018-04-23T05:59:20.141Z,83.60
2018-04-23T06:01:49.855Z,83.30
2018-04-23T06:04:19.319Z,82.90
2018-04-23T06:06:49.384Z,81.90
2018-04-23T06:09:18.936Z,81.90
2018-04-23T06:11:48.373Z,81.40
2018-04-23T06:14:18.288Z,81.20
2018-04-23T06:16:47.936Z,81.20
2018-04-23T06:19:17.777Z,80.40
2018-04-23T06:21:47.255Z,80.40
2018-04-23T06:24:16.831Z,80.50
2018-04-23T06:26:46.282Z,80.60
2018-04-23T06:29:15.747Z,81.80
2018-04-23T06:31:45.610Z,81.50
2018-04-23T06:34:15.416Z,81.50
2018-04-23T06:36:45.040Z,80.10
2018-04-23T06:39:14.473Z,80.70
2018-04-23T06:41:43.919Z,80.60
2018-04-23T06:44:13.522Z,79.80
2018-04-23T06:46:43.003Z,80.10
2018-04-23T06:49:12.469Z,79.60
2018-04-23T06:51:41.957Z,80.70
2018-04-23T06:54:11.508Z,80.00
2018-04-23T06:56:40.741Z,79.10
2018-04-23T06:59:09.997Z,79.30
2018-04-23T07:01:39.832Z,79.70
2018-04-23T07:04:09.682Z,79.90
2018-04-23T07:06:39.122Z,79.90
2018-04-23T07:09:08.618Z,77.60
2018-04-23T07:11:38.122Z,78.30
2018-04-23T07:14:07.980Z,78.70
2018-04-23T07:16:37.561Z,78.70
2018-04-23T07:19:07.154Z,78.70
2018-04-23T07:21:36.610Z,78.70
2018-04-23T07:24:06.489Z,79.40
2018-04-23T07:26:35.940Z,79.40
2018-04-23T07:29:06.349Z,77.80
2018-04-23T07:31:35.817Z,78.40
2018-04-23T07:34:05.676Z,78.70
2018-04-23T07:36:35.124Z,78.70
2018-04-23T07:39:03.705Z,77.40
2018-04-23T07:41:33.153Z,77.50
2018-04-23T07:44:02.606Z,76.80
2018-04-23T07:46:32.464Z,79.00
2018-04-23T07:49:01.905Z,79.00
2018-04-23T07:51:31.389Z,76.50
2018-04-23T07:54:01.047Z,77.60
2018-04-23T07:56:30.532Z,75.70
2018-04-23T07:59:00.377Z,75.20
2018-04-23T08:01:29.866Z,75.30
2018-04-23T08:03:59.045Z,76.70
2018-04-23T08:06:28.529Z,77.60
2018-04-23T08:08:59.266Z,74.80
2018-04-23T08:11:28.745Z,74.80
2018-04-23T08:13:58.260Z,74.70
2018-04-23T08:16:27.699Z,74.90
2018-04-23T08:18:57.163Z,73.70
2018-04-23T08:21:26.641Z,75.30
2018-04-23T08:23:55.806Z,74.90
2018-04-23T08:26:25.282Z,75.20
2018-04-23T08:28:55.021Z,75.80
2018-04-23T08:31:24.881Z,76.20
2018-04-23T08:33:55.353Z,76.10
2018-04-23T08:36:24.833Z,76.00
2018-04-23T08:38:54.298Z,75.50
2018-04-23T08:41:23.749Z,75.80
2018-04-23T08:43:53.679Z,76.00
2018-04-23T08:46:23.301Z,76.00
2018-04-23T08:48:53.197Z,75.90
2018-04-23T08:51:22.827Z,75.90
2018-04-23T08:53:52.297Z,74.60
2018-04-23T08:56:21.774Z,75.80
2018-04-23T08:58:51.242Z,73.20
2018-04-23T09:01:20.721Z,73.20
2018-04-23T09:03:50.174Z,74.60
2018-04-23T09:06:19.641Z,73.30
2018-04-23T09:08:49.125Z,75.00
2018-04-23T09:11:18.611Z,73.20
2018-04-23T09:13:48.070Z,72.90
2018-04-23T09:16:17.532Z,72.20
2018-04-23T09:18:46.364Z,73.80
2018-04-23T09:21:16.210Z,73.00
2018-04-23T09:23:45.688Z,73.00
2018-04-23T09:26:15.138Z,72.90
2018-04-23T09:28:44.988Z,72.80
2018-04-23T09:31:14.463Z,72.80
2018-04-23T09:33:43.941Z,72.50
2018-04-23T09:36:13.400Z,72.30
2018-04-23T09:38:42.841Z,71.90
2018-04-23T09:41:12.696Z,71.50
2018-04-23T09:43:42.146Z,71.50
2018-04-23T09:46:11.608Z,70.30
2018-04-23T09:48:41.468Z,70.70
2018-04-23T09:51:10.975Z,70.70
2018-04-23T09:53:40.849Z,69.40
2018-04-23T09:56:10.365Z,69.30
2018-04-23T09:58:39.598Z,70.50
2018-04-23T10:01:14.745Z,71.20
2018-04-23T10:03:43.977Z,68.50
2018-04-23T10:06:14.346Z,70.50
2018-04-23T10:08:43.830Z,71.80
2018-04-23T10:11:13.312Z,71.30
2018-04-23T10:13:42.765Z,70.00
2018-04-23T10:16:12.250Z,69.10
2018-04-23T10:18:41.442Z,69.40
2018-04-23T10:21:10.927Z,68.30
2018-04-23T10:23:40.151Z,68.40
2018-04-23T10:26:09.285Z,68.20
2018-04-23T10:28:39.136Z,70.00
2018-04-23T10:31:08.381Z,70.00
2018-04-23T10:33:37.868Z,68.10
2018-04-23T10:36:07.326Z,69.70
2018-04-23T10:38:36.815Z,68.30
2018-04-23T10:41:06.257Z,68.20
2018-04-23T10:43:35.753Z,67.80
2018-04-23T10:46:05.209Z,67.80
2018-04-23T10:48:34.661Z,63.80
2018-04-23T10:51:04.184Z,64.50
2018-04-23T10:53:34.299Z,64.90
2018-04-23T10:56:05.722Z,64.90
2018-04-23T10:58:35.200Z,63.30
2018-04-23T11:01:05.088Z,65.30
2018-04-23T11:03:34.547Z,65.30
2018-04-23T11:06:03.729Z,64.00
2018-04-23T11:08:33.252Z,64.00
2018-04-23T11:11:02.717Z,65.70
2018-04-23T11:13:32.606Z,62.80
2018-04-23T11:16:02.076Z,62.80
2018-04-23T11:18:31.564Z,61.90
2018-04-23T11:21:01.236Z,63.40
2018-04-23T11:23:30.704Z,61.80
2018-04-23T11:26:00.117Z,62.80
2018-04-23T11:28:29.588Z,62.50
2018-04-23T11:30:59.049Z,64.10
2018-04-23T11:33:28.509Z,62.20
2018-04-23T11:35:58.365Z,62.80
2018-04-23T11:38:27.822Z,62.80
2018-04-23T11:40:57.260Z,60.20
2018-04-23T11:43:26.699Z,59.20
2018-04-23T11:45:56.549Z,61.00
2018-04-23T11:48:26.030Z,61.00
2018-04-23T11:50:55.522Z,61.00
2018-04-23T11:53:25.166Z,62.60
2018-04-23T11:55:54.623Z,64.50
2018-04-23T11:58:24.084Z,64.50
2018-04-23T12:00:53.268Z,64.00
2018-04-23T12:03:22.765Z,64.30
2018-04-23T12:05:52.617Z,62.80
2018-04-23T12:08:22.080Z,62.80
2018-04-23T12:10:51.390Z,64.10
2018-04-23T12:13:21.410Z,61.30
2018-04-23T12:15:50.854Z,61.30
2018-04-23T12:18:20.300Z,62.10
2018-04-23T12:20:50.153Z,59.90
2018-04-23T12:23:19.582Z,59.90
2018-04-23T12:25:49.109Z,61.70
2018-04-23T12:28:18.558Z,61.00
2018-04-23T12:30:48.031Z,60.60
2018-04-23T12:33:17.479Z,58.00
2018-04-23T12:35:46.959Z,59.00
2018-04-23T12:38:16.827Z,61.70
2018-04-23T12:40:46.301Z,61.60
2018-04-23T12:43:15.774Z,61.90
2018-04-23T12:45:45.265Z,61.50
2018-04-23T12:48:14.725Z,60.90
2018-04-23T12:50:44.178Z,60.50
2018-04-23T12:53:13.622Z,59.00
2018-04-23T12:55:43.095Z,58.60
2018-04-23T12:58:12.537Z,55.30
2018-04-23T13:00:42.382Z,54.90
2018-04-23T13:03:12.226Z,58.90
2018-04-23T13:05:41.699Z,58.90
2018-04-23T13:08:11.163Z,56.20
2018-04-23T13:10:41.345Z,56.20
2018-04-23T13:13:10.785Z,58.70
2018-04-23T13:15:40.274Z,57.90
2018-04-23T13:18:09.707Z,58.80
2018-04-23T13:20:39.201Z,60.50
2018-04-23T13:23:08.414Z,59.70
2018-04-23T13:25:38.881Z,60.50
2018-04-23T13:28:08.324Z,62.10
2018-04-23T13:30:37.777Z,58.80
2018-04-23T13:33:07.262Z,57.20
2018-04-23T13:35:36.718Z,57.40
2018-04-23T13:38:06.153Z,59.30
2018-04-23T13:40:35.613Z,55.90
2018-04-23T13:43:05.065Z,56.60
2018-04-23T13:45:34.933Z,54.30
2018-04-23T13:48:04.385Z,54.30
2018-04-23T13:50:33.842Z,56.70
2018-04-23T13:53:03.309Z,55.80
2018-04-23T13:55:32.512Z,55.40
2018-04-23T13:58:02.177Z,55.20
2018-04-23T14:00:32.049Z,54.90
2018-04-23T14:03:01.531Z,54.90
2018-04-23T14:05:31.398Z,55.10
2018-04-23T14:08:00.854Z,55.10
2018-04-23T14:10:30.332Z,53.10
2018-04-23T14:12:59.797Z,53.40
2018-04-23T14:15:29.255Z,53.30
2018-04-23T14:17:58.697Z,53.30
2018-04-23T14:20:28.155Z,52.30
2018-04-23T14:22:58.565Z,50.10
2018-04-23T14:25:28.037Z,51.80
2018-04-23T14:27:57.659Z,52.30
2018-04-23T14:30:27.126Z,52.90
2018-04-23T14:32:57.296Z,51.20
2018-04-23T14:35:26.522Z,51.80
2018-04-23T14:37:56.000Z,50.30
2018-04-23T14:40:25.458Z,48.40
2018-04-23T14:42:55.044Z,48.30
2018-04-23T14:45:24.529Z,48.50
2018-04-23T14:47:54.177Z,49.90
2018-04-23T14:50:23.623Z,50.40
2018-04-23T14:52:53.088Z,50.60
2018-04-23T14:55:22.253Z,47.50
2018-04-23T14:57:51.765Z,48.50
2018-04-23T15:00:21.313Z,48.00
2018-04-23T15:02:50.790Z,47.90
2018-04-23T15:05:20.254Z,50.30
2018-04-23T15:07:49.768Z,49.70
2018-04-23T15:10:20.032Z,50.70
2018-04-23T15:12:49.514Z,49.30
2018-04-23T15:15:18.966Z,48.20
2018-04-23T15:17:48.495Z,50.80
2018-04-23T15:20:20.683Z,50.70
2018-04-23T15:22:50.178Z,49.70
2018-04-23T15:25:19.647Z,48.90
2018-04-23T15:27:49.486Z,52.10
2018-04-23T15:30:18.961Z,52.10
2018-04-23T15:32:48.405Z,51.60
2018-04-23T15:35:18.286Z,51.20
2018-04-23T15:37:47.772Z,51.20
2018-04-23T15:40:17.214Z,51.80
2018-04-23T15:42:46.645Z,49.00
2018-04-23T15:45:15.862Z,50.30
2018-04-23T15:47:45.324Z,51.80
2018-04-23T15:50:15.189Z,51.20
2018-04-23T15:52:44.362Z,51.20
2018-04-23T15:55:14.245Z,52.60
2018-04-23T15:57:43.719Z,52.60
2018-04-23T16:00:13.175Z,49.50
2018-04-23T16:02:42.643Z,51.60
2018-04-23T16:05:12.089Z,49.20
2018-04-23T16:07:41.537Z,48.90
2018-04-23T16:10:11.002Z,48.40
2018-04-23T16:12:40.484Z,47.80
2018-04-23T16:15:09.943Z,46.20
2018-04-23T16:17:39.400Z,45.10
2018-04-23T16:20:08.846Z,45.00
2018-04-23T16:22:38.302Z,45.60
2018-04-23T16:25:07.759Z,44.20
2018-04-23T16:27:36.962Z,44.10
2018-04-23T16:30:06.468Z,43.30
2018-04-23T16:32:36.080Z,44.60
2018-04-23T16:35:05.676Z,42.60
2018-04-23T16:37:35.488Z,42.80
2018-04-23T16:40:05.373Z,45.00
2018-04-23T16:42:35.257Z,43.60
2018-04-23T16:45:04.113Z,43.60
2018-04-23T16:47:33.993Z,44.80
2018-04-23T16:50:04.521Z,44.80
2018-04-23T16:52:34.609Z,44.00
2018-04-23T16:55:04.471Z,45.40
2018-04-23T16:57:34.406Z,45.10
2018-04-23T17:00:03.529Z,45.10
2018-04-23T17:02:33.182Z,44.80
2018-04-23T17:05:02.789Z,47.00
2018-04-23T17:07:32.439Z,49.50
2018-04-23T17:10:01.902Z,50.70
2018-04-23T17:12:31.555Z,53.80
2018-04-23T17:15:01.005Z,53.00
2018-04-23T17:17:30.460Z,52.30
2018-04-23T17:20:00.325Z,52.70
2018-04-23T17:22:29.796Z,52.70
2018-04-23T17:24:59.439Z,53.30
2018-04-23T17:27:29.630Z,52.20
2018-04-23T17:29:59.062Z,52.30
2018-04-23T17:32:28.602Z,52.40
2018-04-23T17:34:59.416Z,53.30
2018-04-23T17:37:31.068Z,53.20
2018-04-23T17:40:00.231Z,54.60
2018-04-23T17:42:29.835Z,55.60
2018-04-23T17:44:59.438Z,54.90
2018-04-23T17:47:29.054Z,54.90
2018-04-23T17:49:58.219Z,56.40
2018-04-23T17:52:28.054Z,57.70
2018-04-23T17:54:57.248Z,57.60
2018-04-23T17:57:26.422Z,57.10
2018-04-23T17:59:56.594Z,57.50
2018-04-23T18:02:26.253Z,57.90
2018-04-23T18:04:55.424Z,57.60
2018-04-23T18:07:25.027Z,57.70
2018-04-23T18:09:54.501Z,60.30
2018-04-23T18:12:26.296Z,58.50
2018-04-23T18:14:55.439Z,59.80
2018-04-23T18:17:24.622Z,59.10
2018-04-23T18:19:53.811Z,60.70
2018-04-23T18:22:23.651Z,59.80
2018-04-23T18:24:52.861Z,59.80
2018-04-23T18:27:23.040Z,61.80
2018-04-23T18:29:52.801Z,59.10
2018-04-23T18:32:22.173Z,59.10
